createdAt,value
2022-11-20T00:00:23.073Z,53.90
2022-11-20T00:03:14.778Z,48.40
2022-11-20T00:05:46.918Z,49.30
2022-11-20T00:08:18.654Z,46.50
2022-11-20T00:10:50.430Z,48.50
2022-11-20T00:13:22.182Z,49.60
2022-11-20T00:16:00.464Z,54.40
2022-11-20T00:18:32.345Z,52.80
2022-11-20T00:21:08.708Z,50.50
2022-11-20T00:23:40.518Z,53.20
2022-11-20T00:26:13.867Z,52.70
2022-11-20T00:28:46.846Z,52.40
2022-11-20T00:31:19.382Z,53.30
2022-11-20T00:33:51.784Z,51.90
2022-11-20T00:36:25.220Z,52.20
2022-11-20T00:38:58.638Z,48.50
2022-11-20T00:41:31.798Z,46.70
2022-11-20T00:44:03.793Z,46.00
2022-11-20T00:46:35.541Z,45.90
2022-11-20T00:49:07.335Z,46.70
2022-11-20T00:51:39.235Z,50.70
2022-11-20T00:54:11.183Z,47.60
2022-11-20T00:56:42.941Z,47.70
2022-11-20T00:59:15.527Z,48.30
2022-11-20T01:01:47.366Z,51.10
2022-11-20T01:04:19.161Z,48.70
2022-11-20T01:06:50.954Z,51.50
2022-11-20T01:09:22.942Z,51.50
2022-11-20T01:11:54.995Z,50.50
2022-11-20T01:14:26.806Z,47.30
2022-11-20T01:16:58.563Z,48.20
2022-11-20T01:19:30.339Z,48.40
2022-11-20T01:22:02.114Z,48.40
2022-11-20T01:24:34.744Z,46.00
2022-11-20T01:27:06.549Z,46.20
2022-11-20T01:29:38.271Z,48.10
2022-11-20T01:32:10.005Z,50.70
2022-11-20T01:34:41.786Z,49.50
2022-11-20T01:37:13.610Z,51.10
2022-11-20T01:39:45.297Z,46.50
2022-11-20T01:42:34.543Z,50.60
2022-11-20T01:45:37.408Z,48.90
2022-11-20T01:48:09.658Z,47.00
2022-11-20T01:50:42.619Z,49.50
2022-11-20T01:53:19.788Z,45.10
2022-11-20T01:55:55.425Z,43.50
2022-11-20T01:58:32.544Z,42.90
2022-11-20T02:01:04.708Z,41.40
2022-11-20T02:03:36.910Z,42.70
2022-11-20T02:06:14.149Z,43.50
2022-11-20T02:08:45.932Z,42.20
2022-11-20T02:11:17.676Z,43.50
2022-11-20T02:13:51.231Z,46.00
2022-11-20T02:16:27.245Z,44.70
2022-11-20T02:19:03.635Z,45.00
2022-11-20T02:21:41.742Z,45.10
2022-11-20T02:24:16.249Z,43.60
2022-11-20T02:26:52.767Z,43.50
2022-11-20T02:29:28.799Z,39.80
2022-11-20T02:32:02.799Z,43.50
2022-11-20T02:34:34.801Z,41.00
2022-11-20T02:37:06.564Z,37.20
2022-11-20T02:39:38.299Z,37.80
2022-11-20T02:42:10.204Z,36.80
2022-11-20T02:44:42.256Z,37.50
2022-11-20T02:47:14.177Z,38.10
2022-11-20T02:49:45.953Z,39.20
2022-11-20T02:52:17.658Z,40.70
2022-11-20T02:54:49.540Z,41.80
2022-11-20T02:57:21.477Z,42.40
2022-11-20T02:59:53.744Z,41.20
2022-11-20T03:02:25.621Z,39.50
2022-11-20T03:04:57.350Z,39.40
2022-11-20T03:07:29.221Z,38.00
2022-11-20T03:10:01.592Z,39.60
2022-11-20T03:12:33.354Z,38.60
2022-11-20T03:15:05.865Z,35.40
2022-11-20T03:17:37.641Z,36.70
2022-11-20T03:20:12.334Z,36.10
2022-11-20T03:22:45.239Z,39.10
2022-11-20T03:25:17.137Z,36.40
2022-11-20T03:27:48.977Z,36.90
2022-11-20T03:30:20.957Z,39.20
2022-11-20T03:32:54.822Z,42.20
2022-11-20T03:35:26.831Z,43.40
2022-11-20T03:37:59.161Z,41.30
2022-11-20T03:40:30.931Z,38.40
2022-11-20T03:43:02.708Z,36.70
2022-11-20T03:45:34.769Z,39.90
2022-11-20T03:48:07.158Z,40.40
2022-11-20T03:50:38.911Z,41.60
2022-11-20T03:53:10.687Z,40.70
2022-11-20T03:55:42.976Z,41.50
2022-11-20T03:58:14.753Z,37.70
2022-11-20T04:00:46.512Z,40.70
2022-11-20T04:03:18.253Z,40.80
2022-11-20T04:05:50.085Z,41.80
2022-11-20T04:08:22.118Z,42.20
2022-11-20T04:10:53.853Z,43.40
2022-11-20T04:13:25.610Z,41.20
2022-11-20T04:16:00.527Z,38.70
2022-11-20T04:18:32.309Z,44.80
2022-11-20T04:21:04.941Z,41.00
2022-11-20T04:23:37.250Z,39.80
2022-11-20T04:26:10.919Z,41.00
2022-11-20T04:28:42.974Z,41.20
2022-11-20T04:31:17.213Z,39.60
2022-11-20T04:33:49.291Z,41.40
2022-11-20T04:36:23.693Z,44.60
2022-11-20T04:38:57.489Z,45.70
2022-11-20T04:41:31.194Z,49.80
2022-11-20T04:44:04.932Z,39.80
2022-11-20T04:46:39.094Z,39.30
2022-11-20T04:49:12.809Z,44.20
2022-11-20T04:51:44.675Z,43.80
2022-11-20T04:54:17.333Z,42.80
2022-11-20T04:56:50.751Z,43.90
2022-11-20T04:59:23.000Z,40.70
2022-11-20T05:01:55.245Z,38.90
2022-11-20T05:04:27.413Z,38.30
2022-11-20T05:06:59.253Z,35.90
2022-11-20T05:09:31.611Z,37.10
2022-11-20T05:12:03.357Z,35.60
2022-11-20T05:14:35.100Z,36.30
2022-11-20T05:17:06.884Z,34.70
2022-11-20T05:19:38.846Z,32.90
2022-11-20T05:22:10.590Z,31.10
2022-11-20T05:24:42.321Z,31.70
2022-11-20T05:27:14.308Z,32.70
2022-11-20T05:29:48.518Z,31.50
2022-11-20T05:32:20.272Z,31.20
2022-11-20T05:34:52.030Z,32.00
2022-11-20T05:37:23.776Z,31.90
2022-11-20T05:39:55.537Z,30.20
2022-11-20T05:42:33.028Z,31.00
2022-11-20T05:45:07.046Z,29.20
2022-11-20T05:47:38.775Z,30.60
2022-11-20T05:50:11.413Z,30.20
2022-11-20T05:52:43.486Z,27.60
2022-11-20T05:55:15.636Z,30.50
2022-11-20T05:57:47.389Z,28.90
2022-11-20T06:00:20.224Z,28.60
2022-11-20T06:02:52.238Z,27.40
2022-11-20T06:05:25.043Z,27.30
2022-11-20T06:07:56.996Z,27.60
2022-11-20T06:10:28.731Z,28.30
2022-11-20T06:13:02.269Z,28.80
2022-11-20T06:15:34.043Z,28.80
2022-11-20T06:18:06.032Z,30.20
2022-11-20T06:20:41.927Z,28.20
2022-11-20T06:23:14.557Z,28.80
2022-11-20T06:25:46.661Z,29.90
2022-11-20T06:28:18.434Z,30.00
2022-11-20T06:30:50.642Z,28.80
2022-11-20T06:33:22.439Z,27.40
2022-11-20T06:35:59.517Z,27.60
2022-11-20T06:38:32.337Z,28.20
2022-11-20T06:41:04.991Z,28.50
2022-11-20T06:43:37.070Z,29.50
2022-11-20T06:46:09.321Z,27.20
2022-11-20T06:48:41.688Z,28.40
2022-11-20T06:51:13.502Z,32.10
2022-11-20T06:53:45.302Z,32.40
2022-11-20T06:56:17.110Z,30.50
2022-11-20T06:58:48.852Z,31.90
2022-11-20T07:01:20.984Z,30.70
2022-11-20T07:03:54.554Z,32.30
2022-11-20T07:06:26.442Z,33.00
2022-11-20T07:08:58.516Z,32.50
2022-11-20T07:11:30.245Z,36.10
2022-11-20T07:14:02.085Z,39.20
2022-11-20T07:16:33.867Z,40.10
2022-11-20T07:19:05.644Z,40.90
2022-11-20T07:21:37.730Z,39.80
2022-11-20T07:24:09.839Z,38.40
2022-11-20T07:26:41.599Z,34.70
2022-11-20T07:29:13.339Z,34.70
2022-11-20T07:31:48.235Z,35.40
2022-11-20T07:34:21.010Z,35.10
2022-11-20T07:36:52.873Z,37.60
2022-11-20T07:39:24.646Z,41.80
2022-11-20T07:41:56.385Z,45.10
2022-11-20T07:44:28.907Z,44.10
2022-11-20T07:47:00.673Z,50.00
2022-11-20T07:49:32.476Z,45.30
2022-11-20T07:52:05.361Z,49.10
2022-11-20T07:54:37.256Z,44.20
2022-11-20T07:57:08.995Z,41.70
2022-11-20T07:59:40.946Z,41.30
2022-11-20T08:02:14.681Z,44.10
2022-11-20T08:04:46.523Z,44.20
2022-11-20T08:07:18.447Z,48.80
2022-11-20T08:09:52.747Z,49.30
2022-11-20T08:12:42.219Z,43.30
2022-11-20T08:15:14.365Z,42.70
2022-11-20T08:18:02.098Z,43.60
2022-11-20T08:20:38.576Z,55.00
2022-11-20T08:23:12.251Z,60.50
2022-11-20T08:25:43.987Z,39.20
2022-11-20T08:28:21.194Z,39.00
2022-11-20T08:30:59.525Z,31.10
2022-11-20T08:33:33.811Z,29.10
2022-11-20T08:36:07.122Z,28.70
2022-11-20T08:38:39.211Z,33.80
2022-11-20T08:41:26.746Z,39.90
2022-11-20T08:44:01.423Z,39.10
2022-11-20T08:46:37.361Z,43.70
2022-11-20T08:49:10.794Z,40.50
2022-11-20T08:51:43.534Z,40.70
2022-11-20T08:54:15.545Z,40.80
2022-11-20T08:56:47.353Z,42.10
2022-11-20T09:02:11.495Z,33.70
2022-11-20T09:04:43.463Z,34.20
2022-11-20T09:07:15.265Z,32.20
2022-11-20T09:09:58.715Z,33.30
2022-11-20T09:12:39.079Z,33.10
2022-11-20T09:15:12.336Z,31.90
2022-11-20T09:17:44.225Z,33.80
2022-11-20T09:20:17.280Z,30.30
2022-11-20T09:22:49.763Z,29.80
2022-11-20T09:25:21.927Z,30.10
2022-11-20T09:27:59.010Z,30.90
2022-11-20T09:30:32.006Z,30.00
2022-11-20T09:33:05.934Z,30.30
2022-11-20T09:35:37.995Z,31.00
2022-11-20T09:38:11.732Z,29.60
2022-11-20T09:40:49.094Z,31.30
2022-11-20T09:43:32.342Z,29.70
2022-11-20T09:46:16.382Z,28.60
2022-11-20T09:49:01.420Z,27.00
2022-11-20T09:51:46.090Z,27.10
2022-11-20T09:54:21.205Z,29.90
2022-11-20T09:56:58.921Z,29.30
2022-11-20T09:59:39.439Z,32.40
2022-11-20T10:02:21.994Z,34.00
2022-11-20T10:05:01.534Z,37.40
2022-11-20T10:07:40.008Z,37.10
2022-11-20T10:10:21.041Z,38.40
2022-11-20T10:13:07.430Z,41.60
2022-11-20T10:15:50.184Z,45.70
2022-11-20T10:18:35.257Z,48.50
2022-11-20T10:21:18.328Z,48.10
2022-11-20T10:24:03.398Z,42.20
2022-11-20T10:26:44.520Z,43.90
2022-11-20T10:29:18.164Z,42.20
2022-11-20T10:31:55.569Z,43.60
2022-11-20T10:34:34.222Z,40.10
2022-11-20T10:37:12.169Z,41.50
2022-11-20T10:39:53.167Z,41.70
2022-11-20T10:42:32.236Z,38.70
2022-11-20T10:45:13.513Z,40.90
2022-11-20T10:47:45.406Z,46.60
2022-11-20T10:50:22.452Z,42.90
2022-11-20T10:53:07.225Z,46.10
2022-11-20T10:55:49.092Z,45.80
2022-11-20T10:58:32.221Z,41.80
2022-11-20T11:01:15.919Z,43.30
2022-11-20T11:03:48.540Z,43.40
2022-11-20T11:06:27.298Z,43.50
2022-11-20T11:09:05.778Z,43.70
2022-11-20T11:11:40.234Z,46.00
2022-11-20T11:14:14.375Z,46.50
2022-11-20T11:16:55.356Z,47.70
2022-11-20T11:19:27.461Z,50.70
2022-11-20T11:22:00.002Z,49.40
2022-11-20T11:24:48.271Z,49.10
2022-11-20T11:27:20.319Z,44.30
2022-11-20T11:30:03.435Z,42.90
2022-11-20T11:32:35.359Z,42.70
2022-11-20T11:35:20.795Z,40.70
2022-11-20T11:37:55.315Z,40.40
2022-11-20T11:40:30.877Z,41.20
2022-11-20T11:43:27.451Z,40.80
2022-11-20T11:45:59.788Z,36.70
2022-11-20T11:48:31.751Z,37.30
2022-11-20T11:51:03.669Z,39.60
2022-11-20T11:53:43.238Z,38.50
2022-11-20T11:56:17.024Z,37.50
2022-11-20T11:58:51.133Z,36.10
2022-11-20T12:01:34.330Z,38.10
2022-11-20T12:04:15.827Z,36.60
2022-11-20T12:06:52.417Z,39.70
2022-11-20T12:09:30.989Z,42.50
2022-11-20T12:12:11.412Z,43.30
2022-11-20T12:14:47.403Z,47.00
2022-11-20T12:17:19.948Z,45.10
2022-11-20T12:19:52.129Z,42.20
2022-11-20T12:22:36.588Z,45.80
2022-11-20T12:25:16.293Z,46.60
2022-11-20T12:28:12.467Z,44.60
2022-11-20T12:31:01.007Z,45.10
2022-11-20T12:33:49.600Z,46.50
2022-11-20T12:36:32.595Z,44.40
2022-11-20T12:39:17.676Z,39.20
2022-11-20T12:42:25.878Z,39.70
2022-11-20T12:45:12.562Z,44.90
2022-11-20T12:47:57.243Z,45.50
2022-11-20T12:51:00.420Z,46.40
2022-11-20T12:53:43.070Z,45.80
2022-11-20T12:56:29.967Z,46.40
2022-11-20T12:59:15.922Z,46.50
2022-11-20T13:01:54.158Z,45.70
2022-11-20T13:04:55.558Z,43.30
2022-11-20T13:07:30.493Z,40.20
2022-11-20T13:10:03.032Z,39.40
2022-11-20T13:12:40.875Z,43.60
2022-11-20T13:15:34.093Z,44.00
2022-11-20T13:18:10.876Z,42.70
2022-11-20T13:20:47.824Z,41.20
2022-11-20T13:23:29.977Z,41.10
2022-11-20T13:26:17.214Z,35.80
2022-11-20T13:29:01.667Z,38.40
2022-11-20T13:31:35.957Z,35.80
2022-11-20T13:34:09.684Z,34.30
2022-11-20T13:36:53.064Z,33.30
2022-11-20T13:39:35.783Z,33.60
2022-11-20T13:42:28.736Z,30.40
2022-11-20T13:45:11.134Z,33.10
2022-11-20T13:47:51.042Z,32.60
2022-11-20T13:50:41.669Z,34.60
2022-11-20T13:53:31.785Z,34.70
2022-11-20T13:56:13.162Z,35.90
2022-11-20T13:58:59.305Z,36.30
2022-11-20T14:01:36.141Z,34.10
2022-11-20T14:04:17.505Z,33.40
2022-11-20T14:06:51.366Z,33.50
2022-11-20T14:09:31.783Z,35.40
2022-11-20T14:12:04.653Z,33.00
2022-11-20T14:14:38.132Z,35.40
2022-11-20T14:17:19.017Z,39.30
2022-11-20T14:19:53.636Z,40.20
2022-11-20T14:22:27.960Z,42.40
2022-11-20T14:25:09.043Z,40.80
2022-11-20T14:27:43.750Z,41.40
2022-11-20T14:30:20.494Z,39.50
2022-11-20T14:32:55.315Z,34.80
2022-11-20T14:35:31.193Z,35.80
2022-11-20T14:38:05.193Z,29.90
2022-11-20T14:40:38.733Z,30.80
2022-11-20T14:43:23.302Z,30.70
2022-11-20T14:46:01.572Z,29.90
2022-11-20T14:48:39.258Z,27.80
2022-11-20T14:51:13.819Z,27.50
2022-11-20T14:53:45.729Z,30.60
2022-11-20T14:56:26.085Z,31.50
2022-11-20T14:59:01.073Z,31.10
2022-11-20T15:01:35.141Z,32.00
2022-11-20T15:04:11.379Z,34.80
2022-11-20T15:06:53.683Z,36.90
2022-11-20T15:09:29.772Z,35.10
2022-11-20T15:12:03.876Z,32.20
2022-11-20T15:14:38.471Z,31.50
2022-11-20T15:17:13.751Z,32.00
2022-11-20T15:19:45.604Z,31.60
2022-11-20T15:22:18.231Z,33.40
2022-11-20T15:24:52.627Z,37.20
2022-11-20T15:27:25.261Z,34.90
2022-11-20T15:29:57.197Z,38.20
2022-11-20T15:32:29.245Z,39.90
2022-11-20T15:35:01.135Z,39.50
2022-11-20T15:37:33.039Z,39.10
2022-11-20T15:40:05.519Z,36.60
2022-11-20T15:42:38.020Z,34.90
2022-11-20T15:45:11.809Z,36.50
2022-11-20T15:47:43.715Z,35.10
2022-11-20T15:50:20.953Z,35.80
2022-11-20T15:52:52.692Z,36.40
2022-11-20T15:55:25.587Z,36.30
2022-11-20T15:57:57.633Z,38.30
2022-11-20T16:00:29.554Z,38.60
2022-11-20T16:03:02.431Z,37.60
2022-11-20T16:05:34.366Z,38.10
2022-11-20T16:08:11.362Z,38.90
2022-11-20T16:10:43.996Z,36.50
2022-11-20T16:13:35.478Z,33.40
2022-11-20T16:16:11.103Z,33.00
2022-11-20T16:18:43.035Z,32.90
2022-11-20T16:21:15.782Z,32.40
2022-11-20T16:23:47.779Z,32.80
2022-11-20T16:26:21.739Z,33.20
2022-11-20T16:28:53.779Z,34.70
2022-11-20T16:31:25.821Z,37.60
2022-11-20T16:33:59.444Z,35.30
2022-11-20T16:36:32.333Z,35.70
2022-11-20T16:39:05.621Z,37.20
2022-11-20T16:41:37.681Z,38.30
2022-11-20T16:44:12.653Z,35.80
2022-11-20T16:46:44.409Z,37.70
2022-11-20T16:49:17.387Z,35.70
2022-11-20T16:51:49.187Z,35.40
2022-11-20T16:54:21.672Z,34.60
2022-11-20T16:56:54.439Z,37.20
2022-11-20T16:59:26.255Z,34.30
2022-11-20T17:01:58.338Z,36.20
2022-11-20T17:04:30.241Z,40.20
2022-11-20T17:07:07.831Z,40.10
2022-11-20T17:09:40.193Z,41.70
2022-11-20T17:12:12.373Z,43.00
2022-11-20T17:14:44.275Z,44.10
2022-11-20T17:17:16.184Z,45.80
2022-11-20T17:19:48.001Z,41.50
2022-11-20T17:22:19.966Z,41.30
2022-11-20T17:24:51.805Z,42.10
2022-11-20T17:27:23.723Z,39.00
2022-11-20T17:29:57.670Z,42.50
2022-11-20T17:32:29.602Z,38.10
2022-11-20T17:35:01.773Z,41.10
2022-11-20T17:37:33.780Z,40.20
2022-11-20T17:40:06.475Z,41.40
2022-11-20T17:42:38.413Z,43.10
2022-11-20T17:45:10.874Z,42.30
2022-11-20T17:47:44.509Z,40.30
2022-11-20T17:50:16.543Z,41.30
2022-11-20T17:52:48.493Z,41.20
2022-11-20T17:55:20.445Z,39.60
2022-11-20T17:57:56.843Z,37.20
2022-11-20T18:00:30.785Z,32.30
2022-11-20T18:03:02.679Z,31.60
2022-11-20T18:05:34.697Z,31.70
2022-11-20T18:08:06.912Z,28.90
2022-11-20T18:10:39.330Z,25.70
2022-11-20T18:13:11.253Z,26.20
2022-11-20T18:15:43.265Z,27.20
2022-11-20T18:18:14.995Z,25.40
2022-11-20T18:20:46.780Z,25.90
2022-11-20T18:23:18.950Z,27.00
2022-11-20T18:25:50.801Z,26.20
2022-11-20T18:28:24.296Z,28.00
2022-11-20T18:30:56.694Z,28.30
2022-11-20T18:33:28.784Z,26.70
2022-11-20T18:36:09.470Z,24.70
2022-11-20T18:38:44.834Z,27.70
2022-11-20T18:41:31.841Z,26.60
2022-11-20T18:44:22.175Z,28.10
2022-11-20T18:46:55.358Z,27.30
2022-11-20T18:49:27.420Z,25.70
2022-11-20T18:51:59.512Z,29.40
2022-11-20T18:54:31.703Z,29.40
2022-11-20T18:57:03.593Z,30.00
2022-11-20T18:59:35.385Z,29.10
2022-11-20T19:02:07.913Z,28.70
2022-11-20T19:04:40.810Z,29.20
2022-11-20T19:07:13.922Z,30.20
2022-11-20T19:09:52.559Z,28.50
2022-11-20T19:12:24.515Z,26.40
2022-11-20T19:14:57.074Z,29.10
2022-11-20T19:17:28.894Z,29.80
2022-11-20T19:20:01.031Z,29.10
2022-11-20T19:22:32.838Z,29.20
2022-11-20T19:25:04.851Z,29.00
2022-11-20T19:27:36.702Z,31.50
2022-11-20T19:30:10.409Z,32.30
2022-11-20T19:32:42.355Z,33.80
2022-11-20T19:35:14.481Z,33.70
2022-11-20T19:37:46.441Z,34.00
2022-11-20T19:40:18.914Z,32.10
2022-11-20T19:42:50.790Z,32.80
2022-11-20T19:45:22.622Z,32.20
2022-11-20T19:48:10.377Z,33.10
2022-11-20T19:50:42.213Z,32.10
2022-11-20T19:53:16.785Z,32.10
2022-11-20T19:56:01.666Z,31.60
2022-11-20T19:58:33.814Z,30.80
2022-11-20T20:01:10.597Z,32.60
2022-11-20T20:03:43.037Z,30.20
2022-11-20T20:06:17.125Z,32.40
2022-11-20T20:08:54.844Z,32.10
2022-11-20T20:11:28.261Z,34.00
2022-11-20T20:14:01.359Z,32.70
2022-11-20T20:16:34.460Z,32.10
2022-11-20T20:19:07.310Z,33.90
2022-11-20T20:21:39.138Z,32.20
2022-11-20T20:24:12.480Z,32.30
2022-11-20T20:26:44.313Z,30.80
2022-11-20T20:29:16.122Z,30.30
2022-11-20T20:31:48.520Z,29.40
2022-11-20T20:34:20.712Z,28.50
2022-11-20T20:36:52.764Z,30.70
2022-11-20T20:39:25.488Z,31.50
2022-11-20T20:41:57.475Z,33.00
2022-11-20T20:44:47.184Z,33.90
2022-11-20T20:47:20.001Z,32.50
2022-11-20T20:49:51.873Z,34.50
2022-11-20T20:52:23.879Z,35.60
2022-11-20T20:54:55.955Z,34.10
2022-11-20T20:57:28.643Z,34.20
2022-11-20T21:00:00.611Z,35.80
2022-11-20T21:02:32.423Z,36.40
2022-11-20T21:05:04.412Z,38.30
2022-11-20T21:07:56.337Z,36.40
2022-11-20T21:10:28.247Z,37.10
2022-11-20T21:13:00.034Z,34.90
2022-11-20T21:15:31.917Z,33.60
2022-11-20T21:18:03.686Z,34.40
2022-11-20T21:20:53.534Z,34.20
2022-11-20T21:23:25.304Z,33.60
2022-11-20T21:25:57.328Z,33.10
2022-11-20T21:28:30.022Z,35.80
2022-11-20T21:31:10.169Z,37.00
2022-11-20T21:33:43.769Z,38.90
2022-11-20T21:36:17.523Z,38.30
2022-11-20T21:38:52.500Z,39.20
2022-11-20T21:41:24.994Z,38.40
2022-11-20T21:46:49.206Z,37.10
2022-11-20T21:49:21.162Z,63.80
2022-11-20T21:51:53.799Z,37.10
2022-11-20T21:54:25.927Z,58.30
2022-11-20T21:56:57.888Z,59.20
2022-11-20T21:59:29.983Z,54.00
2022-11-20T22:02:01.817Z,50.30
2022-11-20T22:04:33.722Z,48.40
2022-11-20T22:07:06.473Z,52.80
2022-11-20T22:09:38.211Z,47.70
2022-11-20T22:12:10.070Z,54.00
2022-11-20T22:14:41.819Z,50.50
2022-11-20T22:17:16.660Z,49.90
2022-11-20T22:19:48.417Z,46.50
2022-11-20T22:22:20.176Z,42.20
2022-11-20T22:24:52.294Z,48.00
2022-11-20T22:27:24.058Z,38.00
2022-11-20T22:29:55.964Z,42.70
2022-11-20T22:32:27.800Z,44.40
2022-11-20T22:34:59.516Z,43.30
2022-11-20T22:37:31.267Z,45.40
2022-11-20T22:40:03.817Z,44.10
2022-11-20T22:42:35.544Z,44.80
2022-11-20T22:45:09.138Z,39.80
2022-11-20T22:47:40.899Z,38.60
2022-11-20T22:50:13.100Z,38.10
2022-11-20T22:52:44.909Z,38.70
2022-11-20T22:55:16.910Z,41.30
2022-11-20T22:57:48.910Z,35.90
2022-11-20T23:00:22.244Z,35.40
2022-11-20T23:02:54.096Z,35.30
2022-11-20T23:05:25.856Z,35.90
2022-11-20T23:07:57.601Z,34.70
2022-11-20T23:10:29.374Z,36.50
2022-11-20T23:13:01.165Z,36.20
2022-11-20T23:15:33.851Z,37.90
2022-11-20T23:18:05.631Z,41.00
2022-11-20T23:20:39.103Z,42.80
2022-11-20T23:23:10.860Z,45.20
2022-11-20T23:25:42.618Z,40.00
2022-11-20T23:28:14.397Z,39.70
2022-11-20T23:30:48.793Z,41.90
2022-11-20T23:33:20.718Z,38.20
2022-11-20T23:35:52.504Z,39.40
2022-11-20T23:38:24.313Z,40.50
2022-11-20T23:40:56.304Z,37.80
2022-11-20T23:43:28.522Z,37.60
2022-11-20T23:46:01.978Z,36.40
2022-11-20T23:48:36.154Z,37.20
2022-11-20T23:51:08.854Z,38.00
2022-11-20T23:53:40.629Z,36.40
2022-11-20T23:56:15.230Z,36.30
2022-11-20T23:58:47.594Z,34.60
